sensor_id;sensor_type;location;lat;lon;timestamp;temperature;humidity
13203;DHT22;6666;51.626;7.530;2024-01-10T00:02:23;-4.30;96.90
13203;DHT22;6666;51.626;7.530;2024-01-10T00:04:53;-4.30;96.70
13203;DHT22;6666;51.626;7.530;2024-01-10T00:07:21;-4.30;96.80
13203;DHT22;6666;51.626;7.530;2024-01-10T00:09:49;-4.20;97.10
13203;DHT22;6666;51.626;7.530;2024-01-10T00:12:19;-4.30;96.60
13203;DHT22;6666;51.626;7.530;2024-01-10T00:14:47;-4.10;96.80
13203;DHT22;6666;51.626;7.530;2024-01-10T00:17:15;-4.10;96.40
13203;DHT22;6666;51.626;7.530;2024-01-10T00:19:43;-4.20;96.80
13203;DHT22;6666;51.626;7.530;2024-01-10T00:22:11;-4.20;97.10
13203;DHT22;6666;51.626;7.530;2024-01-10T00:24:39;-4.20;96.60
13203;DHT22;6666;51.626;7.530;2024-01-10T00:27:07;-4.30;96.50
13203;DHT22;6666;51.626;7.530;2024-01-10T00:29:38;-4.30;96.20
13203;DHT22;6666;51.626;7.530;2024-01-10T00:32:06;-4.20;96.60
13203;DHT22;6666;51.626;7.530;2024-01-10T00:34:35;-4.30;96.70
13203;DHT22;6666;51.626;7.530;2024-01-10T00:37:03;-4.30;96.90
13203;DHT22;6666;51.626;7.530;2024-01-10T00:39:31;-4.30;96.90
13203;DHT22;6666;51.626;7.530;2024-01-10T00:41:59;-4.40;96.90
13203;DHT22;6666;51.626;7.530;2024-01-10T00:44:27;-4.30;96.80
13203;DHT22;6666;51.626;7.530;2024-01-10T00:46:57;-4.30;96.90
13203;DHT22;6666;51.626;7.530;2024-01-10T00:49:25;-4.30;97.50
13203;DHT22;6666;51.626;7.530;2024-01-10T00:51:53;-4.30;97.00
13203;DHT22;6666;51.626;7.530;2024-01-10T00:54:21;-4.30;97.50
13203;DHT22;6666;51.626;7.530;2024-01-10T00:56:49;-4.30;97.70
13203;DHT22;6666;51.626;7.530;2024-01-10T00:59:17;-4.30;97.70
13203;DHT22;6666;51.626;7.530;2024-01-10T01:01:45;-4.30;98.60
13203;DHT22;6666;51.626;7.530;2024-01-10T01:04:15;-4.30;98.70
13203;DHT22;6666;51.626;7.530;2024-01-10T01:06:43;-4.30;98.50
13203;DHT22;6666;51.626;7.530;2024-01-10T01:09:11;-4.40;98.60
13203;DHT22;6666;51.626;7.530;2024-01-10T01:11:40;-4.30;98.90
13203;DHT22;6666;51.626;7.530;2024-01-10T01:14:08;-4.40;99.90
13203;DHT22;6666;51.626;7.530;2024-01-10T01:16:36;-4.40;99.20
13203;DHT22;6666;51.626;7.530;2024-01-10T01:19:05;-4.50;99.40
13203;DHT22;6666;51.626;7.530;2024-01-10T01:21:34;-4.50;99.90
13203;DHT22;6666;51.626;7.530;2024-01-10T01:24:03;-4.60;99.90
13203;DHT22;6666;51.626;7.530;2024-01-10T01:26:31;-4.70;99.90
13203;DHT22;6666;51.626;7.530;2024-01-10T01:28:59;-4.70;99.90
13203;DHT22;6666;51.626;7.530;2024-01-10T01:31:27;-4.70;99.90
13203;DHT22;6666;51.626;7.530;2024-01-10T01:33:55;-4.70;99.90
13203;DHT22;6666;51.626;7.530;2024-01-10T01:36:23;-4.60;99.90
13203;DHT22;6666;51.626;7.530;2024-01-10T01:38:52;-4.60;99.90
13203;DHT22;6666;51.626;7.530;2024-01-10T01:41:20;-4.70;99.90
13203;DHT22;6666;51.626;7.530;2024-01-10T01:43:48;-4.80;99.90
13203;DHT22;6666;51.626;7.530;2024-01-10T01:46:16;-4.80;99.90
13203;DHT22;6666;51.626;7.530;2024-01-10T01:48:45;-4.70;99.90
13203;DHT22;6666;51.626;7.530;2024-01-10T01:51:14;-4.70;99.90
13203;DHT22;6666;51.626;7.530;2024-01-10T01:53:44;-4.80;99.90
13203;DHT22;6666;51.626;7.530;2024-01-10T01:56:14;-4.90;99.90
13203;DHT22;6666;51.626;7.530;2024-01-10T01:58:43;-4.80;99.90
13203;DHT22;6666;51.626;7.530;2024-01-10T02:01:13;-4.80;99.90
13203;DHT22;6666;51.626;7.530;2024-01-10T02:03:41;-4.70;99.90
13203;DHT22;6666;51.626;7.530;2024-01-10T02:06:10;-4.70;99.90
13203;DHT22;6666;51.626;7.530;2024-01-10T02:08:38;-4.70;99.90
13203;DHT22;6666;51.626;7.530;2024-01-10T02:11:06;-4.60;99.90
13203;DHT22;6666;51.626;7.530;2024-01-10T02:13:36;-4.60;99.90
13203;DHT22;6666;51.626;7.530;2024-01-10T02:16:04;-4.60;99.90
13203;DHT22;6666;51.626;7.530;2024-01-10T02:18:33;-4.60;99.90
13203;DHT22;6666;51.626;7.530;2024-01-10T02:21:02;-4.70;99.90
13203;DHT22;6666;51.626;7.530;2024-01-10T02:23:30;-4.70;99.90
13203;DHT22;6666;51.626;7.530;2024-01-10T02:26:00;-4.70;99.90
13203;DHT22;6666;51.626;7.530;2024-01-10T02:28:29;-4.70;99.90
13203;DHT22;6666;51.626;7.530;2024-01-10T02:30:57;-4.70;99.90
13203;DHT22;6666;51.626;7.530;2024-01-10T02:33:26;-4.70;99.90
13203;DHT22;6666;51.626;7.530;2024-01-10T02:35:55;-4.70;99.90
13203;DHT22;6666;51.626;7.530;2024-01-10T02:38:23;-4.80;99.90
13203;DHT22;6666;51.626;7.530;2024-01-10T02:40:51;-4.80;99.90
13203;DHT22;6666;51.626;7.530;2024-01-10T02:43:21;-4.80;99.90
13203;DHT22;6666;51.626;7.530;2024-01-10T02:45:49;-4.70;99.90
13203;DHT22;6666;51.626;7.530;2024-01-10T02:48:17;-4.80;99.90
13203;DHT22;6666;51.626;7.530;2024-01-10T02:50:45;-4.80;99.90
13203;DHT22;6666;51.626;7.530;2024-01-10T02:53:13;-4.80;99.90
13203;DHT22;6666;51.626;7.530;2024-01-10T02:55:42;-4.80;99.90
13203;DHT22;6666;51.626;7.530;2024-01-10T02:58:13;-4.80;99.90
13203;DHT22;6666;51.626;7.530;2024-01-10T03:00:42;-4.70;99.90
13203;DHT22;6666;51.626;7.530;2024-01-10T03:03:10;-4.70;99.90
13203;DHT22;6666;51.626;7.530;2024-01-10T03:05:38;-4.70;99.90
13203;DHT22;6666;51.626;7.530;2024-01-10T03:08:07;-4.70;99.90
13203;DHT22;6666;51.626;7.530;2024-01-10T03:10:35;-4.70;99.90
13203;DHT22;6666;51.626;7.530;2024-01-10T03:13:03;-4.80;99.90
13203;DHT22;6666;51.626;7.530;2024-01-10T03:15:31;-4.80;99.90
13203;DHT22;6666;51.626;7.530;2024-01-10T03:18:01;-4.90;99.90
13203;DHT22;6666;51.626;7.530;2024-01-10T03:20:29;-4.90;99.90
13203;DHT22;6666;51.626;7.530;2024-01-10T03:22:57;-4.90;99.90
13203;DHT22;6666;51.626;7.530;2024-01-10T03:25:25;-4.90;99.90
13203;DHT22;6666;51.626;7.530;2024-01-10T03:27:53;-5.00;99.90
13203;DHT22;6666;51.626;7.530;2024-01-10T03:30:21;-5.00;99.90
13203;DHT22;6666;51.626;7.530;2024-01-10T03:32:51;-5.00;99.90
13203;DHT22;6666;51.626;7.530;2024-01-10T03:35:21;-5.00;99.90
13203;DHT22;6666;51.626;7.530;2024-01-10T03:37:49;-5.00;99.90
13203;DHT22;6666;51.626;7.530;2024-01-10T03:40:17;-5.00;99.90
13203;DHT22;6666;51.626;7.530;2024-01-10T03:42:45;-5.00;99.90
13203;DHT22;6666;51.626;7.530;2024-01-10T03:45:14;-5.00;99.90
13203;DHT22;6666;51.626;7.530;2024-01-10T03:47:47;-5.10;99.90
13203;DHT22;6666;51.626;7.530;2024-01-10T03:50:18;-5.10;99.90
13203;DHT22;6666;51.626;7.530;2024-01-10T03:52:47;-5.10;99.90
13203;DHT22;6666;51.626;7.530;2024-01-10T03:55:16;-5.00;99.90
13203;DHT22;6666;51.626;7.530;2024-01-10T03:57:44;-5.00;99.90
13203;DHT22;6666;51.626;7.530;2024-01-10T04:00:12;-5.00;99.90
13203;DHT22;6666;51.626;7.530;2024-01-10T04:02:40;-4.90;99.90
13203;DHT22;6666;51.626;7.530;2024-01-10T04:05:09;-5.00;99.90
13203;DHT22;6666;51.626;7.530;2024-01-10T04:07:40;-4.90;99.90
13203;DHT22;6666;51.626;7.530;2024-01-10T04:10:11;-5.00;99.90
13203;DHT22;6666;51.626;7.530;2024-01-10T04:12:42;-4.90;99.90
13203;DHT22;6666;51.626;7.530;2024-01-10T04:15:10;-5.00;99.90
13203;DHT22;6666;51.626;7.530;2024-01-10T04:17:38;-5.00;99.90
13203;DHT22;6666;51.626;7.530;2024-01-10T04:20:08;-5.00;99.90
13203;DHT22;6666;51.626;7.530;2024-01-10T04:22:37;-4.90;99.90
13203;DHT22;6666;51.626;7.530;2024-01-10T04:25:06;-4.90;99.90
13203;DHT22;6666;51.626;7.530;2024-01-10T04:27:36;-5.00;99.80
13203;DHT22;6666;51.626;7.530;2024-01-10T04:30:05;-4.90;99.90
13203;DHT22;6666;51.626;7.530;2024-01-10T04:32:35;-4.90;99.80
13203;DHT22;6666;51.626;7.530;2024-01-10T04:35:03;-4.90;99.90
13203;DHT22;6666;51.626;7.530;2024-01-10T04:37:32;-4.90;99.90
13203;DHT22;6666;51.626;7.530;2024-01-10T04:40:00;-5.00;99.90
13203;DHT22;6666;51.626;7.530;2024-01-10T04:42:30;-5.00;99.90
13203;DHT22;6666;51.626;7.530;2024-01-10T04:45:00;-5.00;99.90
13203;DHT22;6666;51.626;7.530;2024-01-10T04:47:28;-5.00;99.90
13203;DHT22;6666;51.626;7.530;2024-01-10T04:49:57;-5.00;99.90
13203;DHT22;6666;51.626;7.530;2024-01-10T04:52:25;-4.90;99.90
13203;DHT22;6666;51.626;7.530;2024-01-10T04:54:53;-4.90;99.90
13203;DHT22;6666;51.626;7.530;2024-01-10T04:57:21;-4.90;99.90
13203;DHT22;6666;51.626;7.530;2024-01-10T04:59:49;-4.90;99.90
13203;DHT22;6666;51.626;7.530;2024-01-10T05:02:18;-5.00;99.90
13203;DHT22;6666;51.626;7.530;2024-01-10T05:04:47;-5.00;99.90
13203;DHT22;6666;51.626;7.530;2024-01-10T05:07:16;-5.00;99.90
13203;DHT22;6666;51.626;7.530;2024-01-10T05:09:44;-5.00;99.90
13203;DHT22;6666;51.626;7.530;2024-01-10T05:12:11;-5.10;99.90
13203;DHT22;6666;51.626;7.530;2024-01-10T05:14:39;-5.10;99.90
13203;DHT22;6666;51.626;7.530;2024-01-10T05:17:07;-5.10;99.90
13203;DHT22;6666;51.626;7.530;2024-01-10T05:19:36;-5.10;99.90
13203;DHT22;6666;51.626;7.530;2024-01-10T05:22:06;-5.10;99.90
13203;DHT22;6666;51.626;7.530;2024-01-10T05:24:34;-5.00;99.90
13203;DHT22;6666;51.626;7.530;2024-01-10T05:27:03;-5.00;99.90
13203;DHT22;6666;51.626;7.530;2024-01-10T05:29:32;-5.10;99.90
13203;DHT22;6666;51.626;7.530;2024-01-10T05:32:00;-5.00;99.90
13203;DHT22;6666;51.626;7.530;2024-01-10T05:34:28;-5.00;99.90
13203;DHT22;6666;51.626;7.530;2024-01-10T05:36:57;-5.00;99.90
13203;DHT22;6666;51.626;7.530;2024-01-10T05:39:27;-5.10;99.90
13203;DHT22;6666;51.626;7.530;2024-01-10T05:41:57;-5.10;99.90
13203;DHT22;6666;51.626;7.530;2024-01-10T05:44:25;-5.10;99.90
13203;DHT22;6666;51.626;7.530;2024-01-10T05:46:53;-5.10;99.90
13203;DHT22;6666;51.626;7.530;2024-01-10T05:49:21;-5.10;99.90
13203;DHT22;6666;51.626;7.530;2024-01-10T05:51:49;-5.10;99.90
13203;DHT22;6666;51.626;7.530;2024-01-10T05:54:19;-5.20;99.90
13203;DHT22;6666;51.626;7.530;2024-01-10T05:56:47;-5.10;99.90
13203;DHT22;6666;51.626;7.530;2024-01-10T05:59:15;-5.20;99.90
13203;DHT22;6666;51.626;7.530;2024-01-10T06:01:43;-5.10;99.90
13203;DHT22;6666;51.626;7.530;2024-01-10T06:04:12;-5.20;99.90
13203;DHT22;6666;51.626;7.530;2024-01-10T06:06:40;-5.20;99.90
13203;DHT22;6666;51.626;7.530;2024-01-10T06:09:08;-5.30;99.90
13203;DHT22;6666;51.626;7.530;2024-01-10T06:11:42;-5.30;99.90
13203;DHT22;6666;51.626;7.530;2024-01-10T06:14:10;-5.30;99.90
13203;DHT22;6666;51.626;7.530;2024-01-10T06:16:38;-5.30;99.90
13203;DHT22;6666;51.626;7.530;2024-01-10T06:19:06;-5.30;99.90
13203;DHT22;6666;51.626;7.530;2024-01-10T06:21:35;-5.30;99.90
13203;DHT22;6666;51.626;7.530;2024-01-10T06:24:03;-5.30;99.90
13203;DHT22;6666;51.626;7.530;2024-01-10T06:26:31;-5.30;99.90
13203;DHT22;6666;51.626;7.530;2024-01-10T06:29:01;-5.30;99.90
13203;DHT22;6666;51.626;7.530;2024-01-10T06:31:29;-5.40;99.90
13203;DHT22;6666;51.626;7.530;2024-01-10T06:33:57;-5.30;99.90
13203;DHT22;6666;51.626;7.530;2024-01-10T06:36:25;-5.30;99.90
13203;DHT22;6666;51.626;7.530;2024-01-10T06:38:53;-5.20;99.90
13203;DHT22;6666;51.626;7.530;2024-01-10T06:41:22;-5.20;99.90
13203;DHT22;6666;51.626;7.530;2024-01-10T06:43:51;-5.20;99.90
13203;DHT22;6666;51.626;7.530;2024-01-10T06:46:21;-5.10;99.90
13203;DHT22;6666;51.626;7.530;2024-01-10T06:48:49;-5.30;99.90
13203;DHT22;6666;51.626;7.530;2024-01-10T06:51:17;-5.30;99.90
13203;DHT22;6666;51.626;7.530;2024-01-10T06:53:45;-5.20;99.90
13203;DHT22;6666;51.626;7.530;2024-01-10T06:56:13;-5.20;99.90
13203;DHT22;6666;51.626;7.530;2024-01-10T06:58:41;-5.10;99.90
13203;DHT22;6666;51.626;7.530;2024-01-10T07:01:11;-5.20;99.90
13203;DHT22;6666;51.626;7.530;2024-01-10T07:03:42;-5.20;99.90
13203;DHT22;6666;51.626;7.530;2024-01-10T07:06:12;-5.20;99.90
13203;DHT22;6666;51.626;7.530;2024-01-10T07:08:42;-5.20;99.90
13203;DHT22;6666;51.626;7.530;2024-01-10T07:11:11;-5.20;99.90
13203;DHT22;6666;51.626;7.530;2024-01-10T07:13:40;-5.20;99.90
13203;DHT22;6666;51.626;7.530;2024-01-10T07:16:09;-5.10;99.90
13203;DHT22;6666;51.626;7.530;2024-01-10T07:18:43;-5.10;99.90
13203;DHT22;6666;51.626;7.530;2024-01-10T07:21:12;-5.10;99.90
13203;DHT22;6666;51.626;7.530;2024-01-10T07:23:40;-5.20;99.90
13203;DHT22;6666;51.626;7.530;2024-01-10T07:26:13;-5.30;99.90
13203;DHT22;6666;51.626;7.530;2024-01-10T07:28:43;-5.30;99.90
13203;DHT22;6666;51.626;7.530;2024-01-10T07:31:11;-5.40;99.90
13203;DHT22;6666;51.626;7.530;2024-01-10T07:33:39;-5.30;99.90
13203;DHT22;6666;51.626;7.530;2024-01-10T07:36:09;-5.20;99.90
13203;DHT22;6666;51.626;7.530;2024-01-10T07:38:40;-5.20;99.90
13203;DHT22;6666;51.626;7.530;2024-01-10T07:41:08;-5.20;99.90
13203;DHT22;6666;51.626;7.530;2024-01-10T07:43:38;-5.10;99.90
13203;DHT22;6666;51.626;7.530;2024-01-10T07:46:06;-5.20;99.90
13203;DHT22;6666;51.626;7.530;2024-01-10T07:48:34;-5.30;99.90
13203;DHT22;6666;51.626;7.530;2024-01-10T07:51:05;-5.20;99.90
13203;DHT22;6666;51.626;7.530;2024-01-10T07:53:35;-5.10;99.90
13203;DHT22;6666;51.626;7.530;2024-01-10T07:56:04;-5.10;99.90
13203;DHT22;6666;51.626;7.530;2024-01-10T07:58:32;-5.00;99.90
13203;DHT22;6666;51.626;7.530;2024-01-10T08:01:00;-5.10;99.90
13203;DHT22;6666;51.626;7.530;2024-01-10T08:03:29;-5.10;99.90
13203;DHT22;6666;51.626;7.530;2024-01-10T08:05:57;-5.00;99.90
13203;DHT22;6666;51.626;7.530;2024-01-10T08:08:25;-5.00;99.90
13203;DHT22;6666;51.626;7.530;2024-01-10T08:10:56;-5.00;99.90
13203;DHT22;6666;51.626;7.530;2024-01-10T08:13:24;-4.90;99.90
13203;DHT22;6666;51.626;7.530;2024-01-10T08:15:52;-5.00;99.90
13203;DHT22;6666;51.626;7.530;2024-01-10T08:18:22;-5.00;99.90
13203;DHT22;6666;51.626;7.530;2024-01-10T08:20:51;-4.90;99.90
13203;DHT22;6666;51.626;7.530;2024-01-10T08:23:18;-4.90;99.90
13203;DHT22;6666;51.626;7.530;2024-01-10T08:25:47;-4.80;99.90
13203;DHT22;6666;51.626;7.530;2024-01-10T08:28:17;-4.80;99.90
13203;DHT22;6666;51.626;7.530;2024-01-10T08:30:45;-4.80;99.90
13203;DHT22;6666;51.626;7.530;2024-01-10T08:33:13;-4.70;99.90
13203;DHT22;6666;51.626;7.530;2024-01-10T08:35:41;-4.60;99.90
13203;DHT22;6666;51.626;7.530;2024-01-10T08:38:09;-4.60;99.90
13203;DHT22;6666;51.626;7.530;2024-01-10T08:40:37;-4.60;99.90
13203;DHT22;6666;51.626;7.530;2024-01-10T08:43:05;-4.50;99.90
13203;DHT22;6666;51.626;7.530;2024-01-10T08:45:35;-4.50;99.90
13203;DHT22;6666;51.626;7.530;2024-01-10T08:48:03;-4.40;99.40
13203;DHT22;6666;51.626;7.530;2024-01-10T08:50:36;-4.30;98.90
13203;DHT22;6666;51.626;7.530;2024-01-10T08:53:04;-4.30;98.70
13203;DHT22;6666;51.626;7.530;2024-01-10T08:55:32;-4.20;99.00
13203;DHT22;6666;51.626;7.530;2024-01-10T08:58:03;-4.20;98.70
13203;DHT22;6666;51.626;7.530;2024-01-10T09:00:31;-4.10;98.60
13203;DHT22;6666;51.626;7.530;2024-01-10T09:03:02;-4.10;98.20
13203;DHT22;6666;51.626;7.530;2024-01-10T09:05:30;-4.00;98.30
13203;DHT22;6666;51.626;7.530;2024-01-10T09:07:59;-3.90;98.50
13203;DHT22;6666;51.626;7.530;2024-01-10T09:10:27;-3.90;97.90
13203;DHT22;6666;51.626;7.530;2024-01-10T09:12:58;-3.90;97.70
13203;DHT22;6666;51.626;7.530;2024-01-10T09:15:26;-3.80;97.70
13203;DHT22;6666;51.626;7.530;2024-01-10T09:17:54;-3.70;97.70
13203;DHT22;6666;51.626;7.530;2024-01-10T09:20:24;-3.70;96.80
13203;DHT22;6666;51.626;7.530;2024-01-10T09:22:52;-3.60;96.90
13203;DHT22;6666;51.626;7.530;2024-01-10T09:25:21;-3.50;96.60
13203;DHT22;6666;51.626;7.530;2024-01-10T09:27:49;-3.40;96.50
13203;DHT22;6666;51.626;7.530;2024-01-10T09:30:17;-3.40;96.20
13203;DHT22;6666;51.626;7.530;2024-01-10T09:32:46;-3.30;95.30
13203;DHT22;6666;51.626;7.530;2024-01-10T09:35:15;-3.20;94.90
13203;DHT22;6666;51.626;7.530;2024-01-10T09:37:46;-3.10;95.10
13203;DHT22;6666;51.626;7.530;2024-01-10T09:40:15;-3.00;94.40
13203;DHT22;6666;51.626;7.530;2024-01-10T09:42:44;-3.00;93.60
13203;DHT22;6666;51.626;7.530;2024-01-10T09:45:12;-2.90;92.90
13203;DHT22;6666;51.626;7.530;2024-01-10T09:47:46;-2.80;93.00
13203;DHT22;6666;51.626;7.530;2024-01-10T09:50:16;-2.70;91.60
13203;DHT22;6666;51.626;7.530;2024-01-10T09:52:50;-2.70;91.30
13203;DHT22;6666;51.626;7.530;2024-01-10T09:55:21;-2.60;90.40
13203;DHT22;6666;51.626;7.530;2024-01-10T09:57:51;-2.50;90.50
13203;DHT22;6666;51.626;7.530;2024-01-10T10:00:20;-2.50;90.20
13203;DHT22;6666;51.626;7.530;2024-01-10T10:02:51;-2.40;90.20
13203;DHT22;6666;51.626;7.530;2024-01-10T10:05:20;-2.40;90.00
13203;DHT22;6666;51.626;7.530;2024-01-10T10:07:52;-2.40;89.30
13203;DHT22;6666;51.626;7.530;2024-01-10T10:10:21;-2.30;87.70
13203;DHT22;6666;51.626;7.530;2024-01-10T10:12:50;-2.30;86.80
13203;DHT22;6666;51.626;7.530;2024-01-10T10:15:20;-2.20;87.80
13203;DHT22;6666;51.626;7.530;2024-01-10T10:17:50;-2.10;85.90
13203;DHT22;6666;51.626;7.530;2024-01-10T10:20:22;-2.00;86.30
13203;DHT22;6666;51.626;7.530;2024-01-10T10:23:08;-2.00;86.00
13203;DHT22;6666;51.626;7.530;2024-01-10T10:25:44;-1.90;84.40
13203;DHT22;6666;51.626;7.530;2024-01-10T10:28:12;-1.90;84.00
13203;DHT22;6666;51.626;7.530;2024-01-10T10:30:55;-1.80;84.50
13203;DHT22;6666;51.626;7.530;2024-01-10T10:33:24;-1.80;81.60
13203;DHT22;6666;51.626;7.530;2024-01-10T10:35:53;-1.70;82.20
13203;DHT22;6666;51.626;7.530;2024-01-10T10:38:23;-1.70;80.90
13203;DHT22;6666;51.626;7.530;2024-01-10T10:40:51;-1.60;80.90
13203;DHT22;6666;51.626;7.530;2024-01-10T10:43:21;-1.60;80.00
13203;DHT22;6666;51.626;7.530;2024-01-10T10:45:50;-1.60;78.90
13203;DHT22;6666;51.626;7.530;2024-01-10T10:48:19;-1.60;78.10
13203;DHT22;6666;51.626;7.530;2024-01-10T10:50:54;-1.50;77.50
13203;DHT22;6666;51.626;7.530;2024-01-10T10:53:27;-1.40;78.00
13203;DHT22;6666;51.626;7.530;2024-01-10T10:55:57;-1.40;74.80
13203;DHT22;6666;51.626;7.530;2024-01-10T10:58:27;-1.40;75.00
13203;DHT22;6666;51.626;7.530;2024-01-10T11:00:57;-1.30;75.60
13203;DHT22;6666;51.626;7.530;2024-01-10T11:03:27;-1.30;72.20
13203;DHT22;6666;51.626;7.530;2024-01-10T11:05:56;-1.30;71.90
13203;DHT22;6666;51.626;7.530;2024-01-10T11:08:32;-1.20;71.50
13203;DHT22;6666;51.626;7.530;2024-01-10T11:11:04;-1.20;69.90
13203;DHT22;6666;51.626;7.530;2024-01-10T11:13:50;-1.10;71.30
13203;DHT22;6666;51.626;7.530;2024-01-10T11:16:42;-1.00;71.00
13203;DHT22;6666;51.626;7.530;2024-01-10T11:19:32;-1.00;70.00
13203;DHT22;6666;51.626;7.530;2024-01-10T11:22:14;-1.00;69.10
13203;DHT22;6666;51.626;7.530;2024-01-10T11:24:45;-1.00;70.20
13203;DHT22;6666;51.626;7.530;2024-01-10T11:27:14;-0.90;68.90
13203;DHT22;6666;51.626;7.530;2024-01-10T11:29:45;-0.90;68.60
13203;DHT22;6666;51.626;7.530;2024-01-10T11:32:15;-0.90;69.30
13203;DHT22;6666;51.626;7.530;2024-01-10T11:34:53;-0.90;68.90
13203;DHT22;6666;51.626;7.530;2024-01-10T11:37:22;-0.80;68.30
13203;DHT22;6666;51.626;7.530;2024-01-10T11:39:52;-0.80;68.70
13203;DHT22;6666;51.626;7.530;2024-01-10T11:42:23;-0.70;68.50
13203;DHT22;6666;51.626;7.530;2024-01-10T11:44:51;-0.70;68.30
13203;DHT22;6666;51.626;7.530;2024-01-10T11:47:20;-0.70;68.90
13203;DHT22;6666;51.626;7.530;2024-01-10T11:49:54;-0.70;71.00
13203;DHT22;6666;51.626;7.530;2024-01-10T11:52:23;-0.70;70.30
13203;DHT22;6666;51.626;7.530;2024-01-10T11:54:52;-0.60;69.60
13203;DHT22;6666;51.626;7.530;2024-01-10T11:57:21;-0.50;69.60
13203;DHT22;6666;51.626;7.530;2024-01-10T11:59:53;-0.50;70.40
13203;DHT22;6666;51.626;7.530;2024-01-10T12:02:23;-0.50;70.60
13203;DHT22;6666;51.626;7.530;2024-01-10T12:04:53;-0.40;69.00
13203;DHT22;6666;51.626;7.530;2024-01-10T12:07:21;-0.40;69.60
13203;DHT22;6666;51.626;7.530;2024-01-10T12:09:52;-0.40;69.40
13203;DHT22;6666;51.626;7.530;2024-01-10T12:12:21;-0.40;70.10
13203;DHT22;6666;51.626;7.530;2024-01-10T12:14:50;-0.30;71.50
13203;DHT22;6666;51.626;7.530;2024-01-10T12:17:19;-0.30;69.30
13203;DHT22;6666;51.626;7.530;2024-01-10T12:19:49;-0.30;67.90
13203;DHT22;6666;51.626;7.530;2024-01-10T12:22:17;-0.30;68.00
13203;DHT22;6666;51.626;7.530;2024-01-10T12:24:48;-0.20;67.60
13203;DHT22;6666;51.626;7.530;2024-01-10T12:27:19;-0.10;67.00
13203;DHT22;6666;51.626;7.530;2024-01-10T12:29:50;-0.10;67.40
13203;DHT22;6666;51.626;7.530;2024-01-10T12:32:21;-0.10;66.90
13203;DHT22;6666;51.626;7.530;2024-01-10T12:34:54;0.00;65.50
13203;DHT22;6666;51.626;7.530;2024-01-10T12:37:27;0.00;66.70
13203;DHT22;6666;51.626;7.530;2024-01-10T12:39:55;0.00;64.80
13203;DHT22;6666;51.626;7.530;2024-01-10T12:42:25;0.00;66.80
13203;DHT22;6666;51.626;7.530;2024-01-10T12:44:53;0.10;66.00
13203;DHT22;6666;51.626;7.530;2024-01-10T12:47:22;0.10;65.90
13203;DHT22;6666;51.626;7.530;2024-01-10T12:49:51;0.10;66.90
13203;DHT22;6666;51.626;7.530;2024-01-10T12:52:21;0.20;66.90
13203;DHT22;6666;51.626;7.530;2024-01-10T12:54:50;0.20;68.10
13203;DHT22;6666;51.626;7.530;2024-01-10T12:57:19;0.20;69.00
13203;DHT22;6666;51.626;7.530;2024-01-10T12:59:48;0.30;67.20
13203;DHT22;6666;51.626;7.530;2024-01-10T13:02:16;0.30;67.20
13203;DHT22;6666;51.626;7.530;2024-01-10T13:04:45;0.30;67.10
13203;DHT22;6666;51.626;7.530;2024-01-10T13:07:13;0.40;67.20
13203;DHT22;6666;51.626;7.530;2024-01-10T13:09:42;0.40;67.80
13203;DHT22;6666;51.626;7.530;2024-01-10T13:12:10;0.40;67.50
13203;DHT22;6666;51.626;7.530;2024-01-10T13:14:38;0.40;66.70
13203;DHT22;6666;51.626;7.530;2024-01-10T13:17:07;0.40;67.50
13203;DHT22;6666;51.626;7.530;2024-01-10T13:19:36;0.40;69.90
13203;DHT22;6666;51.626;7.530;2024-01-10T13:22:04;0.50;68.00
13203;DHT22;6666;51.626;7.530;2024-01-10T13:24:35;0.50;66.90
13203;DHT22;6666;51.626;7.530;2024-01-10T13:27:03;0.50;66.10
13203;DHT22;6666;51.626;7.530;2024-01-10T13:29:31;0.50;65.00
13203;DHT22;6666;51.626;7.530;2024-01-10T13:32:01;0.50;65.00
13203;DHT22;6666;51.626;7.530;2024-01-10T13:34:31;0.50;65.30
13203;DHT22;6666;51.626;7.530;2024-01-10T13:36:59;0.50;65.80
13203;DHT22;6666;51.626;7.530;2024-01-10T13:39:28;0.50;66.60
13203;DHT22;6666;51.626;7.530;2024-01-10T13:41:56;0.50;65.10
13203;DHT22;6666;51.626;7.530;2024-01-10T13:44:25;0.50;66.00
13203;DHT22;6666;51.626;7.530;2024-01-10T13:46:53;0.50;65.70
13203;DHT22;6666;51.626;7.530;2024-01-10T13:49:21;0.50;67.50
13203;DHT22;6666;51.626;7.530;2024-01-10T13:51:50;0.50;68.40
13203;DHT22;6666;51.626;7.530;2024-01-10T13:54:19;0.60;68.60
13203;DHT22;6666;51.626;7.530;2024-01-10T13:56:48;0.50;69.40
13203;DHT22;6666;51.626;7.530;2024-01-10T13:59:17;0.50;69.30
13203;DHT22;6666;51.626;7.530;2024-01-10T14:01:46;0.50;69.60
13203;DHT22;6666;51.626;7.530;2024-01-10T14:04:14;0.50;68.30
13203;DHT22;6666;51.626;7.530;2024-01-10T14:06:43;0.50;69.70
13203;DHT22;6666;51.626;7.530;2024-01-10T14:09:12;0.50;70.00
13203;DHT22;6666;51.626;7.530;2024-01-10T14:11:40;0.50;70.10
13203;DHT22;6666;51.626;7.530;2024-01-10T14:14:08;0.40;70.30
13203;DHT22;6666;51.626;7.530;2024-01-10T14:16:36;0.40;71.40
13203;DHT22;6666;51.626;7.530;2024-01-10T14:19:04;0.40;72.20
13203;DHT22;6666;51.626;7.530;2024-01-10T14:21:33;0.30;73.90
13203;DHT22;6666;51.626;7.530;2024-01-10T14:24:01;0.40;73.40
13203;DHT22;6666;51.626;7.530;2024-01-10T14:26:31;0.30;75.40
13203;DHT22;6666;51.626;7.530;2024-01-10T14:28:59;0.30;75.10
13203;DHT22;6666;51.626;7.530;2024-01-10T14:31:27;0.30;76.10
13203;DHT22;6666;51.626;7.530;2024-01-10T14:34:15;0.30;74.90
13203;DHT22;6666;51.626;7.530;2024-01-10T14:36:44;0.30;76.90
13203;DHT22;6666;51.626;7.530;2024-01-10T14:39:12;0.30;78.00
13203;DHT22;6666;51.626;7.530;2024-01-10T14:41:43;0.20;78.70
13203;DHT22;6666;51.626;7.530;2024-01-10T14:44:11;0.20;78.70
13203;DHT22;6666;51.626;7.530;2024-01-10T14:46:39;0.20;79.50
13203;DHT22;6666;51.626;7.530;2024-01-10T14:49:16;0.10;80.60
13203;DHT22;6666;51.626;7.530;2024-01-10T14:51:44;0.10;80.80
13203;DHT22;6666;51.626;7.530;2024-01-10T14:54:13;0.00;80.90
13203;DHT22;6666;51.626;7.530;2024-01-10T14:56:40;0.00;81.10
13203;DHT22;6666;51.626;7.530;2024-01-10T14:59:12;-0.10;81.90
13203;DHT22;6666;51.626;7.530;2024-01-10T15:01:43;-0.10;82.80
13203;DHT22;6666;51.626;7.530;2024-01-10T15:04:12;-0.10;82.70
13203;DHT22;6666;51.626;7.530;2024-01-10T15:06:44;-0.10;84.00
13203;DHT22;6666;51.626;7.530;2024-01-10T15:09:13;-0.20;84.10
13203;DHT22;6666;51.626;7.530;2024-01-10T15:11:42;-0.30;86.00
13203;DHT22;6666;51.626;7.530;2024-01-10T15:14:11;-0.30;86.50
13203;DHT22;6666;51.626;7.530;2024-01-10T15:16:40;-0.30;88.20
13203;DHT22;6666;51.626;7.530;2024-01-10T15:19:08;-0.30;88.30
13203;DHT22;6666;51.626;7.530;2024-01-10T15:21:36;-0.40;89.00
13203;DHT22;6666;51.626;7.530;2024-01-10T15:24:05;-0.40;89.80
13203;DHT22;6666;51.626;7.530;2024-01-10T15:26:33;-0.50;90.00
13203;DHT22;6666;51.626;7.530;2024-01-10T15:29:02;-0.50;90.30
13203;DHT22;6666;51.626;7.530;2024-01-10T15:31:32;-0.50;90.80
13203;DHT22;6666;51.626;7.530;2024-01-10T15:34:02;-0.60;90.90
13203;DHT22;6666;51.626;7.530;2024-01-10T15:36:30;-0.60;91.40
13203;DHT22;6666;51.626;7.530;2024-01-10T15:38:58;-0.60;91.60
13203;DHT22;6666;51.626;7.530;2024-01-10T15:41:26;-0.70;92.20
13203;DHT22;6666;51.626;7.530;2024-01-10T15:43:54;-0.70;91.60
13203;DHT22;6666;51.626;7.530;2024-01-10T15:46:22;-0.70;91.90
13203;DHT22;6666;51.626;7.530;2024-01-10T15:48:52;-0.70;92.20
13203;DHT22;6666;51.626;7.530;2024-01-10T15:51:20;-0.70;92.40
13203;DHT22;6666;51.626;7.530;2024-01-10T15:53:48;-0.80;93.00
13203;DHT22;6666;51.626;7.530;2024-01-10T15:56:17;-0.80;93.10
13203;DHT22;6666;51.626;7.530;2024-01-10T15:58:45;-0.80;93.80
13203;DHT22;6666;51.626;7.530;2024-01-10T16:01:13;-0.90;94.30